createdAt,value
2024-01-16T00:01:07.849Z,100.00
2024-01-16T00:05:10.641Z,100.00
2024-01-16T00:09:12.450Z,100.00
2024-01-16T00:13:14.487Z,100.00
2024-01-16T00:17:16.416Z,100.00
2024-01-16T00:21:18.165Z,100.00
2024-01-16T00:25:22.854Z,100.00
2024-01-16T00:29:25.064Z,100.00
2024-01-16T00:33:28.713Z,100.00
2024-01-16T00:37:30.500Z,100.00
2024-01-16T00:41:32.240Z,100.00
2024-01-16T00:45:36.028Z,100.00
2024-01-16T00:49:38.696Z,100.00
2024-01-16T00:53:44.001Z,100.00
2024-01-16T00:57:45.731Z,100.00
2024-01-16T01:01:47.498Z,100.00
2024-01-16T01:05:49.396Z,100.00
2024-01-16T01:09:51.164Z,100.00
2024-01-16T01:13:52.952Z,100.00
2024-01-16T01:17:55.780Z,100.00
2024-01-16T01:21:57.624Z,100.00
2024-01-16T01:25:59.421Z,100.00
2024-01-16T01:30:01.153Z,100.00
2024-01-16T01:34:02.960Z,100.00
2024-01-16T01:38:05.483Z,100.00
2024-01-16T01:42:07.259Z,100.00
2024-01-16T01:46:15.922Z,100.00
2024-01-16T01:50:18.494Z,100.00
2024-01-16T01:54:21.892Z,100.00
2024-01-16T02:02:33.561Z,100.00
2024-01-16T02:06:35.958Z,100.00
2024-01-16T02:10:41.035Z,100.00
2024-01-16T02:14:43.274Z,100.00
2024-01-16T02:18:45.045Z,100.00
2024-01-16T02:22:51.339Z,100.00
2024-01-16T02:26:53.289Z,100.00
2024-01-16T02:30:55.196Z,100.00
2024-01-16T02:34:57.032Z,100.00
2024-01-16T02:38:59.536Z,100.00
2024-01-16T02:43:03.162Z,100.00
2024-01-16T02:47:05.295Z,100.00
2024-01-16T02:51:07.437Z,100.00
2024-01-16T02:55:09.585Z,100.00
2024-01-16T02:59:12.371Z,100.00
2024-01-16T03:03:14.987Z,100.00
2024-01-16T03:07:17.460Z,100.00
2024-01-16T03:11:19.872Z,100.00
2024-01-16T03:15:22.118Z,100.00
2024-01-16T03:19:26.241Z,100.00
2024-01-16T03:23:28.825Z,100.00
2024-01-16T03:27:30.510Z,100.00
2024-01-16T03:31:33.976Z,100.00
2024-01-16T03:35:36.766Z,100.00
2024-01-16T03:39:38.588Z,100.00
2024-01-16T03:43:41.569Z,100.00
2024-01-16T03:47:44.932Z,100.00
2024-01-16T03:51:47.792Z,100.00
2024-01-16T03:55:51.781Z,100.00
2024-01-16T03:59:53.754Z,100.00
2024-01-16T04:03:55.742Z,100.00
2024-01-16T04:07:58.391Z,100.00
2024-01-16T04:12:01.193Z,100.00
2024-01-16T04:16:02.902Z,100.00
2024-01-16T04:20:12.090Z,100.00
2024-01-16T04:24:15.940Z,100.00
2024-01-16T04:28:17.745Z,100.00
2024-01-16T04:32:19.833Z,100.00
2024-01-16T04:36:22.906Z,100.00
2024-01-16T04:40:26.796Z,100.00
2024-01-16T04:44:30.076Z,100.00
2024-01-16T04:48:32.239Z,100.00
2024-01-16T04:52:33.996Z,100.00
2024-01-16T04:56:36.905Z,100.00
2024-01-16T05:00:38.984Z,100.00
2024-01-16T05:04:50.794Z,100.00
2024-01-16T05:08:52.603Z,100.00
2024-01-16T05:12:55.717Z,100.00
2024-01-16T05:16:58.060Z,100.00
2024-01-16T05:21:00.804Z,100.00
2024-01-16T05:25:03.238Z,100.00
2024-01-16T05:29:05.384Z,100.00
2024-01-16T05:33:07.576Z,100.00
2024-01-16T05:37:11.053Z,100.00
2024-01-16T05:41:13.060Z,100.00
2024-01-16T05:45:15.055Z,100.00
2024-01-16T05:49:16.810Z,100.00
2024-01-16T05:53:18.794Z,100.00
2024-01-16T05:57:20.599Z,100.00
2024-01-16T06:01:22.327Z,100.00
2024-01-16T06:05:26.159Z,100.00
2024-01-16T06:09:27.987Z,100.00
2024-01-16T06:13:31.497Z,100.00
2024-01-16T06:17:33.452Z,100.00
2024-01-16T06:21:35.252Z,100.00
2024-01-16T06:25:37.503Z,100.00
2024-01-16T06:29:39.326Z,100.00
2024-01-16T06:33:41.267Z,100.00
2024-01-16T06:37:44.653Z,100.00
2024-01-16T06:41:46.514Z,100.00
2024-01-16T06:45:48.558Z,100.00
2024-01-16T06:49:50.938Z,100.00
2024-01-16T06:53:52.716Z,100.00
2024-01-16T06:57:54.455Z,100.00
2024-01-16T07:01:56.467Z,100.00
2024-01-16T07:05:58.238Z,100.00
2024-01-16T07:10:00.234Z,100.00
2024-01-16T07:14:01.919Z,100.00
2024-01-16T07:18:04.609Z,100.00
2024-01-16T07:22:06.366Z,100.00
2024-01-16T07:26:08.889Z,100.00
2024-01-16T07:30:11.483Z,100.00
2024-01-16T07:34:14.005Z,100.00
2024-01-16T07:38:15.958Z,100.00
2024-01-16T07:42:17.874Z,100.00
2024-01-16T07:46:19.672Z,100.00
2024-01-16T07:50:21.438Z,100.00
2024-01-16T07:54:23.296Z,100.00
2024-01-16T07:58:25.696Z,100.00
2024-01-16T08:02:35.556Z,100.00
2024-01-16T08:06:38.060Z,100.00
2024-01-16T08:10:43.600Z,100.00
2024-01-16T08:14:45.592Z,100.00
2024-01-16T08:18:47.521Z,100.00
2024-01-16T08:22:51.549Z,100.00
2024-01-16T08:26:53.448Z,100.00
2024-01-16T08:30:55.287Z,100.00
2024-01-16T08:34:57.043Z,100.00
2024-01-16T08:39:02.792Z,100.00
2024-01-16T08:43:04.941Z,100.00
2024-01-16T08:47:08.498Z,100.00
2024-01-16T08:51:16.154Z,99.23
2024-01-16T08:55:19.804Z,98.97
2024-01-16T08:59:24.226Z,97.97
2024-01-16T09:03:29.469Z,97.23
2024-01-16T09:07:31.205Z,96.89
2024-01-16T09:11:33.701Z,95.79
2024-01-16T09:15:35.928Z,94.89
2024-01-16T09:19:43.754Z,93.29
2024-01-16T09:23:45.565Z,92.93
2024-01-16T09:27:47.548Z,91.73
2024-01-16T09:31:49.304Z,90.72
2024-01-16T09:35:52.224Z,90.68
2024-01-16T09:39:55.247Z,89.52
2024-01-16T09:43:57.907Z,89.03
2024-01-16T09:48:00.802Z,89.33
2024-01-16T09:52:03.457Z,87.91
2024-01-16T09:56:13.444Z,87.31
2024-01-16T10:00:16.850Z,88.41
2024-01-16T10:04:22.022Z,88.76
2024-01-16T10:08:26.251Z,88.74
2024-01-16T10:12:29.408Z,88.80
2024-01-16T10:17:07.380Z,86.88
2024-01-16T10:21:23.473Z,87.22
2024-01-16T10:25:28.708Z,84.96
2024-01-16T10:29:43.759Z,84.65
2024-01-16T10:33:52.271Z,82.54
2024-01-16T10:37:55.115Z,80.77
2024-01-16T10:42:00.318Z,81.05
2024-01-16T10:46:09.717Z,81.16
2024-01-16T10:50:11.707Z,80.59
2024-01-16T10:54:17.339Z,80.71
2024-01-16T10:58:25.236Z,81.25
2024-01-16T11:02:39.809Z,81.24
2024-01-16T11:06:43.826Z,81.94
2024-01-16T11:10:46.355Z,79.99
2024-01-16T11:14:52.694Z,80.29
2024-01-16T11:19:00.653Z,79.55
2024-01-16T11:23:13.246Z,78.91
2024-01-16T11:27:25.515Z,78.59
2024-01-16T11:31:30.427Z,77.92
2024-01-16T11:35:39.710Z,77.98
2024-01-16T11:39:42.715Z,77.33
2024-01-16T11:43:44.913Z,75.76
2024-01-16T11:47:47.387Z,75.89
2024-01-16T11:51:49.659Z,74.62
2024-01-16T11:56:41.430Z,75.05
2024-01-16T12:00:49.026Z,73.07
2024-01-16T12:04:56.161Z,73.01
2024-01-16T12:09:17.046Z,72.29
2024-01-16T12:13:19.342Z,72.66
2024-01-16T12:17:21.715Z,72.52
2024-01-16T12:21:25.468Z,70.44
2024-01-16T12:25:59.774Z,70.22
2024-01-16T12:29:53.337Z,65.67
2024-01-16T12:34:09.770Z,63.29
2024-01-16T12:38:17.581Z,61.67
2024-01-16T12:42:21.623Z,58.99
2024-01-16T12:46:24.186Z,57.14
2024-01-16T12:50:28.429Z,57.30
2024-01-16T12:54:30.345Z,56.91
2024-01-16T12:58:38.571Z,57.50
2024-01-16T13:02:40.731Z,57.81
2024-01-16T13:06:45.145Z,58.33
2024-01-16T13:11:07.308Z,58.16
2024-01-16T13:15:10.038Z,59.19
2024-01-16T13:19:12.796Z,60.54
2024-01-16T13:23:17.585Z,60.82
2024-01-16T13:27:19.557Z,61.77
2024-01-16T13:31:21.602Z,61.27
2024-01-16T13:35:23.585Z,61.23
2024-01-16T13:39:25.381Z,62.12
2024-01-16T13:43:27.846Z,62.67
2024-01-16T13:47:31.052Z,62.70
2024-01-16T13:51:32.935Z,63.44
2024-01-16T13:55:35.269Z,63.97
2024-01-16T13:59:38.494Z,63.89
2024-01-16T14:03:44.360Z,64.10
2024-01-16T14:07:47.654Z,64.79
2024-01-16T14:11:52.292Z,65.22
2024-01-16T14:15:54.164Z,66.28
2024-01-16T14:19:56.312Z,67.04
2024-01-16T14:24:01.584Z,67.72
2024-01-16T14:28:05.092Z,67.47
2024-01-16T14:32:07.683Z,67.40
2024-01-16T14:36:09.731Z,68.01
2024-01-16T14:40:17.234Z,68.30
2024-01-16T14:44:19.151Z,68.83
2024-01-16T14:48:21.404Z,69.01
2024-01-16T14:52:25.328Z,69.43
2024-01-16T14:56:27.128Z,69.38
2024-01-16T15:00:28.975Z,69.24
2024-01-16T15:04:32.582Z,69.38
2024-01-16T15:08:35.376Z,68.74
2024-01-16T15:12:37.617Z,68.66
2024-01-16T15:16:40.295Z,69.01
2024-01-16T15:20:45.714Z,69.13
2024-01-16T15:24:48.767Z,69.73
2024-01-16T15:28:51.059Z,70.26
2024-01-16T15:32:52.918Z,70.64
2024-01-16T15:36:55.262Z,71.29
2024-01-16T15:40:57.608Z,71.88
2024-01-16T15:45:00.252Z,72.68
2024-01-16T15:49:02.298Z,73.47
2024-01-16T15:53:06.162Z,74.11
2024-01-16T15:57:07.944Z,74.78
2024-01-16T16:01:12.191Z,75.81
2024-01-16T16:05:14.220Z,76.32
2024-01-16T16:09:16.145Z,76.95
2024-01-16T16:13:19.173Z,77.46
2024-01-16T16:17:21.097Z,78.17
2024-01-16T16:21:25.282Z,78.46
2024-01-16T16:25:27.618Z,79.41
2024-01-16T16:29:29.683Z,79.86
2024-01-16T16:33:31.550Z,81.11
2024-01-16T16:37:35.161Z,81.67
2024-01-16T16:41:43.665Z,82.24
2024-01-16T16:45:46.135Z,82.86
2024-01-16T16:49:51.492Z,82.91
2024-01-16T16:53:55.652Z,83.70
2024-01-16T16:57:58.508Z,84.04
2024-01-16T17:02:03.522Z,84.32
2024-01-16T17:06:12.341Z,84.99
2024-01-16T17:10:15.731Z,84.85
2024-01-16T17:14:17.837Z,85.33
2024-01-16T17:18:20.348Z,85.43
2024-01-16T17:22:23.438Z,85.64
2024-01-16T17:26:26.815Z,85.32
2024-01-16T17:30:29.560Z,85.62
2024-01-16T17:34:31.549Z,85.62
2024-01-16T17:38:33.637Z,85.52
2024-01-16T17:42:35.474Z,85.71
2024-01-16T17:46:37.621Z,86.18
2024-01-16T17:50:56.723Z,86.59
2024-01-16T17:54:59.102Z,86.52
2024-01-16T17:59:00.827Z,86.85
2024-01-16T18:03:04.785Z,87.10
2024-01-16T18:07:07.259Z,87.29
2024-01-16T18:11:09.111Z,87.09
2024-01-16T18:15:14.932Z,87.53
2024-01-16T18:19:17.304Z,87.69
2024-01-16T18:23:20.733Z,87.63
2024-01-16T18:27:23.312Z,87.99
2024-01-16T18:31:26.103Z,88.63
2024-01-16T18:35:27.942Z,89.13
2024-01-16T18:39:30.972Z,88.91
2024-01-16T18:43:33.270Z,88.98
2024-01-16T18:47:37.728Z,89.33
2024-01-16T18:51:39.976Z,89.39
2024-01-16T18:55:41.686Z,88.99
2024-01-16T18:59:43.876Z,89.63
2024-01-16T19:03:46.981Z,90.49
2024-01-16T19:07:51.210Z,90.07
2024-01-16T19:11:56.219Z,90.00
2024-01-16T19:15:58.082Z,90.21
2024-01-16T19:19:59.911Z,92.06
2024-01-16T19:24:01.794Z,91.05
2024-01-16T19:28:03.800Z,90.99
2024-01-16T19:32:06.846Z,91.01
2024-01-16T19:36:08.892Z,91.30
2024-01-16T19:40:14.458Z,91.43
2024-01-16T19:44:16.787Z,91.52
2024-01-16T19:48:18.737Z,91.59
2024-01-16T19:52:20.840Z,91.66
2024-01-16T19:56:23.057Z,91.94
2024-01-16T20:00:24.974Z,92.09
2024-01-16T20:04:27.497Z,92.16
2024-01-16T20:08:29.190Z,92.60
2024-01-16T20:12:39.737Z,91.90
2024-01-16T20:16:42.716Z,92.18
2024-01-16T20:20:45.297Z,92.61
2024-01-16T20:24:47.038Z,92.91
2024-01-16T20:28:50.007Z,92.98
2024-01-16T20:32:54.051Z,93.18
2024-01-16T20:36:59.352Z,93.09
2024-01-16T20:41:01.076Z,93.15
2024-01-16T20:45:03.050Z,93.61
2024-01-16T20:49:04.958Z,93.93
2024-01-16T20:53:07.023Z,93.81
2024-01-16T20:57:09.087Z,93.64
2024-01-16T21:01:10.955Z,93.61
2024-01-16T21:05:12.944Z,93.68
2024-01-16T21:09:17.284Z,93.62
2024-01-16T21:13:19.707Z,93.86
2024-01-16T21:17:21.868Z,94.01
2024-01-16T21:21:24.313Z,93.93
2024-01-16T21:25:26.282Z,94.15
2024-01-16T21:29:28.114Z,93.89
2024-01-16T21:33:32.884Z,94.00
2024-01-16T21:37:34.700Z,94.11
2024-01-16T21:41:36.766Z,94.45
2024-01-16T21:45:38.620Z,94.10
2024-01-16T21:49:40.541Z,94.35
2024-01-16T21:53:42.450Z,94.05
2024-01-16T21:57:47.168Z,94.03
2024-01-16T22:01:48.969Z,94.02
2024-01-16T22:05:50.868Z,94.12
2024-01-16T22:09:52.951Z,94.21
2024-01-16T22:13:54.820Z,94.32
2024-01-16T22:17:59.024Z,94.29
2024-01-16T22:22:00.880Z,94.39
2024-01-16T22:26:02.874Z,94.82
2024-01-16T22:30:09.544Z,94.33
2024-01-16T22:34:12.023Z,94.61
2024-01-16T22:38:13.993Z,94.70
2024-01-16T22:42:15.819Z,94.79
2024-01-16T22:46:17.912Z,94.79
2024-01-16T22:50:19.817Z,94.81
2024-01-16T22:54:22.135Z,94.99
2024-01-16T22:58:24.121Z,94.93
2024-01-16T23:02:26.141Z,94.76
2024-01-16T23:06:31.194Z,94.59
2024-01-16T23:10:33.085Z,94.92
2024-01-16T23:14:34.859Z,94.67
2024-01-16T23:18:38.773Z,94.58
2024-01-16T23:22:44.833Z,94.60
2024-01-16T23:26:46.754Z,94.83
2024-01-16T23:30:48.588Z,94.90
2024-01-16T23:34:50.499Z,94.59
2024-01-16T23:38:54.011Z,94.38
2024-01-16T23:42:57.023Z,94.45
2024-01-16T23:46:58.839Z,94.31
2024-01-16T23:51:01.464Z,94.60
2024-01-16T23:55:03.285Z,94.14
2024-01-16T23:59:04.988Z,94.21
